Time;durP1;ratioP1;P1;durP2;ratioP2;P2;SDS_P1;SDS_P2;PMS_P1;PMS_P2;Temp;Humidity;BMP_temperature;BMP_pressure;BME280_temperature;BME280_humidity;BME280_pressure;Samples;Min_cycle;Max_cycle;Signal;HPM_P1;HPM_P2
2023/02/25 00:01:25;;;;;;;23.52;4.10;;;3.60;99.90;;;1.81;100.00;99061.81;5039744;28;20156;-78
2023/02/25 00:03:54;;;;;;;21.80;3.80;;;3.50;99.90;;;1.76;100.00;99061.56;5059940;28;20417;-79
2023/02/25 00:06:20;;;;;;;21.90;3.55;;;3.50;99.90;;;1.85;100.00;99055.00;5038121;28;20029;-78
2023/02/25 00:08:48;;;;;;;24.25;3.40;;;3.60;99.90;;;1.88;100.00;99072.59;5044420;28;20037;-79
2023/02/25 00:11:16;;;;;;;20.67;3.22;;;3.60;99.90;;;1.82;100.00;99071.53;5047524;28;20033;-80
2023/02/25 00:13:43;;;;;;;25.67;3.47;;;3.60;99.90;;;1.77;100.00;99062.41;5043297;28;20466;-79
2023/02/25 00:16:09;;;;;;;29.38;4.00;;;3.60;99.90;;;1.76;100.00;99077.72;5044998;28;20120;-79
2023/02/25 00:18:39;;;;;;;25.38;3.75;;;3.50;99.90;;;1.80;100.00;99083.53;5045085;28;20052;-79
2023/02/25 00:21:08;;;;;;;23.30;3.50;;;3.50;99.90;;;1.80;100.00;99073.59;5043529;28;20040;-80
2023/02/25 00:23:34;;;;;;;29.38;3.92;;;3.50;99.90;;;1.82;100.00;99078.78;5058167;28;20132;-79
2023/02/25 00:26:04;;;;;;;22.48;3.60;;;3.60;99.90;;;1.89;100.00;99087.72;5037388;28;20044;-79
2023/02/25 00:28:31;;;;;;;20.70;3.42;;;3.60;99.90;;;1.85;100.00;99091.84;5034210;28;20033;-80
2023/02/25 00:30:57;;;;;;;25.83;3.92;;;3.60;99.90;;;1.89;100.00;99086.91;5041046;28;20362;-77
2023/02/25 00:33:23;;;;;;;20.58;4.25;;;3.60;99.90;;;1.92;100.00;99083.81;5050301;28;20043;-77
2023/02/25 00:35:50;;;;;;;26.38;4.95;;;3.60;99.90;;;1.97;100.00;99089.41;5047230;28;20042;-78
2023/02/25 00:38:17;;;;;;;19.52;3.53;;;3.70;99.90;;;1.99;100.00;99098.13;5056100;28;20095;-78
2023/02/25 00:40:45;;;;;;;22.63;4.63;;;3.70;99.90;;;1.94;100.00;99109.47;5044115;28;20124;-79
2023/02/25 00:43:11;;;;;;;19.00;4.13;;;3.70;99.90;;;1.96;100.00;99101.22;5049731;28;20231;-78
2023/02/25 00:45:39;;;;;;;21.00;3.20;;;3.70;99.90;;;1.94;100.00;99106.78;5034324;28;20048;-78
2023/02/25 00:48:06;;;;;;;17.98;4.63;;;3.70;99.90;;;1.88;100.00;99096.81;5034660;28;20025;-78
2023/02/25 00:50:31;;;;;;;21.65;3.65;;;3.70;99.90;;;1.94;100.00;99105.97;5041610;28;20132;-79
2023/02/25 00:52:57;;;;;;;17.83;3.85;;;3.70;99.90;;;1.95;100.00;99113.00;5055277;28;20187;-78
2023/02/25 00:55:23;;;;;;;17.77;3.35;;;3.70;99.90;;;2.00;100.00;99122.13;5044418;28;20048;-77
2023/02/25 00:57:49;;;;;;;18.27;3.53;;;3.80;99.90;;;1.91;100.00;99127.88;5048474;28;20056;-78
2023/02/25 01:00:15;;;;;;;12.82;2.85;;;3.70;99.90;;;1.92;100.00;99122.28;5044424;28;20047;-79
2023/02/25 01:02:44;;;;;;;21.25;4.82;;;3.70;99.90;;;1.86;100.00;99136.53;5043016;28;20041;-79
2023/02/25 01:05:13;;;;;;;19.40;3.40;;;3.60;99.90;;;1.91;100.00;99138.63;5045765;28;20067;-80
2023/02/25 01:07:40;;;;;;;15.68;3.22;;;3.60;99.90;;;1.86;100.00;99147.28;5045723;28;20033;-81
2023/02/25 01:10:09;;;;;;;12.80;3.40;;;3.60;99.90;;;1.80;100.00;99164.22;5050375;28;20029;-79
2023/02/25 01:12:35;;;;;;;22.35;5.72;;;3.60;99.90;;;1.76;100.00;99147.63;5037965;28;20067;-79
2023/02/25 01:15:01;;;;;;;14.13;3.72;;;3.50;99.90;;;1.64;100.00;99133.88;5040152;28;20541;-81
2023/02/25 01:17:27;;;;;;;17.75;3.63;;;3.50;99.90;;;1.71;100.00;99148.19;5039705;28;20071;-79
2023/02/25 01:19:53;;;;;;;13.63;2.80;;;3.50;99.90;;;1.73;100.00;99142.63;5036069;28;20037;-81
2023/02/25 01:22:19;;;;;;;19.30;3.97;;;3.50;99.90;;;1.77;100.00;99154.66;5062531;28;20040;-80
2023/02/25 01:24:45;;;;;;;22.88;4.55;;;3.50;99.90;;;1.78;100.00;99156.31;5047694;28;20071;-80
2023/02/25 01:27:12;;;;;;;21.50;3.53;;;3.50;99.90;;;1.78;100.00;99156.31;5051887;28;20401;-81
2023/02/25 01:29:39;;;;;;;16.55;2.92;;;3.50;99.90;;;1.77;100.00;99151.16;5041763;28;20049;-79
2023/02/25 01:32:10;;;;;;;15.45;3.20;;;3.50;99.90;;;1.75;100.00;99162.09;5033754;28;20078;-79
2023/02/25 01:34:38;;;;;;;17.15;3.58;;;3.50;99.90;;;1.78;100.00;99164.41;5038284;28;20128;-79
2023/02/25 01:37:05;;;;;;;12.18;3.05;;;3.50;99.90;;;1.84;100.00;99171.66;5063957;28;20115;-79
2023/02/25 01:39:31;;;;;;;18.33;3.40;;;3.60;99.90;;;1.80;100.00;99153.47;5038605;28;20448;-80
2023/02/25 01:42:01;;;;;;;15.18;3.33;;;3.60;99.90;;;1.77;100.00;99165.41;5041832;28;20044;-78
2023/02/25 01:45:16;;;;;;;16.35;2.88;;;3.50;99.90;;;1.66;100.00;99160.59;5048581;28;20038;-79
2023/02/25 01:47:47;;;;;;;16.65;3.20;;;3.50;99.90;;;1.70;100.00;99169.94;5056550;28;20041;-78
2023/02/25 01:50:13;;;;;;;12.85;2.95;;;3.50;99.90;;;1.68;100.00;99163.91;5053850;28;20074;-76
2023/02/25 01:52:41;;;;;;;14.68;3.08;;;3.40;99.90;;;1.65;100.00;99169.69;5046878;28;20048;-79
2023/02/25 01:55:09;;;;;;;21.35;4.82;;;3.40;99.90;;;1.67;100.00;99183.75;5054349;28;20079;-81
2023/02/25 01:57:36;;;;;;;17.35;5.25;;;3.40;99.90;;;1.68;100.00;99177.34;5057947;28;20084;-80
2023/02/25 02:00:16;;;;;;;19.85;5.40;;;3.40;99.90;;;1.80;100.00;99162.34;5059457;28;20036;-77
2023/02/25 02:02:48;;;;;;;17.85;4.28;;;3.50;99.90;;;1.70;100.00;99165.38;5039524;28;20110;-78
2023/02/25 02:05:14;;;;;;;13.32;3.50;;;3.50;99.90;;;1.76;100.00;99185.28;5051473;28;20431;-78
2023/02/25 02:07:41;;;;;;;18.45;3.60;;;3.50;99.90;;;1.77;100.00;99178.06;5047226;28;20059;-78
2023/02/25 02:10:09;;;;;;;20.17;3.53;;;3.50;99.90;;;1.75;100.00;99189.00;5042360;28;20547;-78
2023/02/25 02:12:41;;;;;;;21.30;4.47;;;3.50;99.90;;;1.79;100.00;99192.94;5048978;28;20041;-77
2023/02/25 02:15:13;;;;;;;9.90;3.55;;;3.50;99.90;;;1.85;100.00;99194.03;5048260;28;20032;-79
2023/02/25 02:17:50;;;;;;;15.13;3.58;;;3.60;99.90;;;1.91;100.00;99187.88;5049252;28;20041;-79
2023/02/25 02:20:31;;;;;;;12.88;3.20;;;3.60;99.90;;;1.93;100.00;99199.25;5052110;28;20238;-78
2023/02/25 02:23:52;;;;;;;6.90;2.80;;;3.70;99.90;;;1.99;100.00;99200.34;5061716;28;20065;-79
2023/02/25 02:26:48;;;;;;;14.60;3.53;;;3.70;99.90;;;1.97;100.00;99180.88;5043828;28;20037;-78
2023/02/25 02:30:12;;;;;;;19.25;3.80;;;3.70;99.90;;;1.98;100.00;99198.69;5044534;28;20068;-79
2023/02/25 02:33:11;;;;;;;17.88;3.25;;;3.70;99.90;;;1.95;100.00;99199.06;5032353;28;20030;-80
2023/02/25 02:36:00;;;;;;;11.18;3.03;;;3.70;99.90;;;1.98;100.00;99215.63;5047302;28;20442;-80
2023/02/25 02:38:52;;;;;;;10.27;2.30;;;3.70;99.90;;;1.91;100.00;99193.25;5041647;28;20080;-79
2023/02/25 02:41:33;;;;;;;16.25;2.38;;;3.80;99.90;;;2.03;100.00;99206.16;5048556;28;20115;-79
2023/02/25 02:44:19;;;;;;;12.35;3.10;;;3.70;99.90;;;2.07;100.00;99208.25;5056049;28;20037;-79
2023/02/25 02:46:57;;;;;;;11.50;2.65;;;3.80;99.90;;;2.08;100.00;99219.84;5037438;28;20037;-80
2023/02/25 02:49:39;;;;;;;11.52;2.97;;;3.80;99.90;;;1.99;100.00;99206.56;5041918;28;20025;-79
2023/02/25 02:52:14;;;;;;;9.25;2.17;;;3.80;99.90;;;2.07;100.00;99207.44;5031832;28;20428;-79
2023/02/25 02:54:54;;;;;;;14.57;3.30;;;3.80;99.90;;;2.09;100.00;99216.97;5044103;28;20025;-80
2023/02/25 02:57:26;;;;;;;7.55;2.45;;;3.90;99.90;;;2.05;100.00;99201.41;5059499;28;20446;-80
2023/02/25 03:00:00;;;;;;;11.15;2.50;;;3.80;99.90;;;2.00;100.00;99208.22;5036558;28;20473;-79
2023/02/25 03:02:40;;;;;;;14.68;2.67;;;3.80;99.90;;;1.93;100.00;99222.66;5045235;28;20135;-78
2023/02/25 03:05:16;;;;;;;6.18;1.60;;;3.70;99.90;;;1.93;100.00;99222.66;5040858;28;20040;-79
2023/02/25 03:07:54;;;;;;;15.80;3.22;;;3.70;99.90;;;1.84;100.00;99232.72;5032189;28;20534;-79
2023/02/25 03:10:21;;;;;;;11.05;2.58;;;3.60;99.90;;;1.86;100.00;99226.13;5050110;28;20049;-80
2023/02/25 03:12:48;;;;;;;17.80;4.65;;;3.60;99.90;;;1.90;100.00;99231.13;5032596;28;20029;-79
2023/02/25 03:15:14;;;;;;;10.52;2.50;;;3.70;99.90;;;1.92;100.00;99245.19;5048267;28;20518;-79
2023/02/25 03:17:54;;;;;;;12.35;2.35;;;3.70;99.90;;;1.93;100.00;99250.38;5051283;28;20100;-82
2023/02/25 03:20:30;;;;;;;15.48;4.40;;;3.70;99.90;;;1.92;100.00;99264.03;5047349;28;20033;-79
2023/02/25 03:23:01;;;;;;;12.48;2.15;;;3.70;99.90;;;1.93;100.00;99244.16;5040462;28;20073;-79
2023/02/25 03:25:34;;;;;;;9.40;2.85;;;3.70;99.90;;;1.94;100.00;99254.72;5040646;28;20615;-80
2023/02/25 03:28:28;;;;;;;5.70;1.60;;;3.70;99.90;;;1.90;100.00;99255.31;5047430;28;20071;-82
2023/02/25 03:31:16;;;;;;;10.00;2.35;;;3.70;99.90;;;1.88;100.00;99252.81;5041341;28;20140;-79
2023/02/25 03:33:47;;;;;;;12.23;1.65;;;3.70;99.90;;;1.86;100.00;99263.78;5050735;28;20045;-79
2023/02/25 03:36:53;;;;;;;8.65;2.08;;;3.70;99.90;;;1.81;100.00;99251.94;5052761;28;20033;-82
2023/02/25 03:39:27;;;;;;;7.75;1.92;;;3.60;99.90;;;1.83;100.00;99266.84;5035304;28;20485;-80
2023/02/25 03:41:57;;;;;;;13.18;1.92;;;3.60;99.90;;;1.83;100.00;99279.47;5037721;28;20029;-78
2023/02/25 03:44:34;;;;;;;23.90;6.00;;;3.60;99.90;;;1.89;100.00;99284.06;5047248;28;20071;-80
2023/02/25 03:47:05;;;;;;;18.35;6.75;;;3.60;99.90;;;1.99;100.00;99286.44;5024272;28;20025;-81
2023/02/25 03:49:54;;;;;;;12.00;2.53;;;3.70;99.90;;;1.96;100.00;99284.94;5035413;28;20083;-80
2023/02/25 03:52:25;;;;;;;9.80;2.55;;;3.70;99.90;;;1.95;100.00;99285.16;5054131;28;20034;-80
2023/02/25 03:54:57;;;;;;;22.70;5.03;;;3.70;99.90;;;1.96;100.00;99289.50;5045598;28;20053;-80
2023/02/25 03:57:34;;;;;;;19.83;6.05;;;3.70;99.90;;;1.98;100.00;99287.44;5046802;28;20460;-81
2023/02/25 04:00:00;;;;;;;10.98;2.90;;;3.80;99.90;;;1.96;100.00;99301.09;5050553;28;20397;-79
2023/02/25 04:02:31;;;;;;;22.83;7.20;;;3.70;99.90;;;1.94;100.00;99300.44;5058185;28;20033;-81
2023/02/25 04:04:57;;;;;;;14.15;3.72;;;3.70;99.90;;;1.98;100.00;99304.41;5053824;28;20548;-80
2023/02/25 04:07:25;;;;;;;17.63;5.40;;;3.70;99.90;;;1.95;100.00;99314.75;5034962;28;20121;-81
2023/02/25 04:09:51;;;;;;;9.68;2.95;;;3.70;99.90;;;2.02;100.00;99307.56;5059896;28;20060;-80
2023/02/25 04:12:17;;;;;;;10.18;3.20;;;3.80;99.90;;;1.91;100.00;99321.53;5050049;28;20868;-83
2023/02/25 04:14:43;;;;;;;11.23;4.10;;;3.70;99.90;;;1.89;100.00;99324.41;5050913;28;20037;-82
2023/02/25 04:17:10;;;;;;;19.52;8.70;;;3.70;99.90;;;1.92;100.00;99312.44;5050538;28;20052;-79
2023/02/25 04:19:36;;;;;;;9.95;3.15;;;3.70;99.90;;;1.94;100.00;99315.78;5042088;28;20125;-80
2023/02/25 04:22:04;;;;;;;6.68;1.90;;;3.70;99.90;;;1.89;100.00;99327.09;5044406;28;20037;-81
2023/02/25 04:24:30;;;;;;;12.93;2.58;;;3.70;99.90;;;1.86;100.00;99344.47;5034542;28;20041;-82
2023/02/25 04:26:57;;;;;;;11.57;2.40;;;3.60;99.90;;;1.86;100.00;99336.41;5042733;28;20392;-79
2023/02/25 04:29:24;;;;;;;7.72;1.63;;;3.60;99.90;;;1.84;100.00;99334.91;5039990;28;20069;-80
2023/02/25 04:31:51;;;;;;;15.02;4.05;;;3.60;99.90;;;1.86;100.00;99333.72;5043931;28;20036;-82
2023/02/25 04:34:17;;;;;;;11.43;2.92;;;3.60;99.90;;;1.88;100.00;99338.88;5048099;28;20041;-80
2023/02/25 04:36:45;;;;;;;7.70;2.70;;;3.60;99.90;;;1.89;100.00;99342.41;5046193;28;20128;-81
2023/02/25 04:39:14;;;;;;;12.80;4.63;;;3.70;99.90;;;2.01;100.00;99346.25;5042145;28;20029;-81
2023/02/25 04:41:40;;;;;;;16.48;6.63;;;3.80;99.90;;;1.94;100.00;99348.06;5036412;28;20033;-80
2023/02/25 04:44:07;;;;;;;12.05;2.47;;;3.70;99.90;;;1.89;100.00;99347.81;5045353;28;20463;-80
2023/02/25 04:46:37;;;;;;;4.47;1.47;;;3.70;99.90;;;1.86;100.00;99341.78;5053697;28;20063;-81
2023/02/25 04:49:04;;;;;;;12.27;3.88;;;3.60;99.90;;;1.78;100.00;99333.81;5040404;28;20330;-80
2023/02/25 04:51:30;;;;;;;17.48;9.18;;;3.60;99.90;;;1.90;100.00;99333.31;5047021;28;20086;-82
2023/02/25 04:53:55;;;;;;;18.83;9.45;;;3.70;99.90;;;1.90;100.00;99333.31;5048318;28;20531;-81
2023/02/25 04:56:21;;;;;;;16.95;6.43;;;3.70;99.90;;;1.87;100.00;99361.44;5038116;28;20109;-81
2023/02/25 04:58:47;;;;;;;17.65;11.73;;;3.70;99.90;;;1.82;100.00;99339.66;5039808;28;20033;-83
2023/02/25 05:01:13;;;;;;;15.07;6.72;;;3.60;99.90;;;1.80;100.00;99353.28;5042493;28;20029;-79
2023/02/25 05:03:39;;;;;;;13.25;5.85;;;3.60;99.90;;;1.74;100.00;99342.47;5045780;28;20504;-79
2023/02/25 05:06:06;;;;;;;4.90;1.48;;;3.50;99.90;;;1.79;100.00;99343.56;5050910;28;20045;-79
2023/02/25 05:08:35;;;;;;;6.47;2.08;;;3.60;99.90;;;1.71;100.00;99346.38;5045047;28;20025;-81
2023/02/25 05:11:02;;;;;;;4.43;1.00;;;3.50;99.90;;;1.69;100.00;99351.09;5035669;28;20482;-79
2023/02/25 05:13:28;;;;;;;14.68;4.43;;;3.50;99.90;;;1.68;100.00;99341.38;5033702;28;20068;-80
2023/02/25 05:16:15;;;;;;;10.00;2.30;;;3.50;99.90;;;1.70;100.00;99342.03;5041393;28;20067;-80
2023/02/25 05:18:47;;;;;;;5.68;1.70;;;3.50;99.90;;;1.72;100.00;99340.81;5038785;28;20038;-80
2023/02/25 05:21:23;;;;;;;5.65;1.52;;;3.50;99.90;;;1.74;100.00;99354.06;5032674;28;20111;-79
2023/02/25 05:23:51;;;;;;;6.65;1.20;;;3.50;99.90;;;1.78;100.00;99349.94;5043052;28;20427;-79
2023/02/25 05:26:20;;;;;;;4.65;1.13;;;3.50;99.90;;;1.79;100.00;99348.94;5040292;28;20112;-80
2023/02/25 05:28:54;;;;;;;14.07;2.33;;;3.50;99.90;;;1.74;100.00;99353.22;5059824;28;20356;-78
2023/02/25 05:31:21;;;;;;;11.57;2.33;;;3.50;99.90;;;1.76;100.00;99357.38;5042771;28;20033;-79
2023/02/25 05:33:46;;;;;;;10.68;3.17;;;3.50;99.90;;;1.74;100.00;99361.31;5046001;28;20037;-81
2023/02/25 05:36:15;;;;;;;6.10;1.33;;;3.50;99.90;;;1.77;100.00;99359.03;5038388;28;20554;-80
2023/02/25 05:38:42;;;;;;;12.20;1.73;;;3.50;99.90;;;1.72;100.00;99350.72;5063582;28;20083;-78
2023/02/25 05:41:09;;;;;;;5.25;1.40;;;3.50;99.90;;;1.74;100.00;99355.94;5049224;28;20039;-80
2023/02/25 05:43:36;;;;;;;12.85;2.95;;;3.50;99.90;;;1.69;100.00;99345.72;5048752;28;20048;-79
2023/02/25 05:46:03;;;;;;;5.53;1.02;;;3.50;99.90;;;1.64;100.00;99364.28;5032766;28;20033;-79
2023/02/25 05:48:32;;;;;;;10.40;3.50;;;3.50;99.90;;;1.68;100.00;99355.63;5043476;28;20036;-80
2023/02/25 05:51:05;;;;;;;22.05;14.23;;;3.50;99.90;;;1.69;100.00;99384.19;5037557;28;20041;-81
2023/02/25 05:53:31;;;;;;;22.05;7.72;;;3.50;99.90;;;1.72;100.00;99372.25;5053911;28;20053;-79
2023/02/25 05:55:57;;;;;;;17.02;7.93;;;3.50;99.90;;;1.72;100.00;99380.31;5061865;28;20070;-80
2023/02/25 05:58:23;;;;;;;19.23;7.50;;;3.50;99.90;;;1.65;100.00;99384.78;5041833;28;20029;-80
2023/02/25 06:00:49;;;;;;;15.77;7.47;;;3.40;99.90;;;1.58;100.00;99369.38;5032208;28;20488;-79
2023/02/25 06:03:15;;;;;;;9.88;5.38;;;3.40;99.90;;;1.55;100.00;99388.59;5033172;28;20068;-81
2023/02/25 06:05:42;;;;;;;24.05;13.98;;;3.30;99.90;;;1.52;100.00;99393.53;5041154;28;20072;-81
2023/02/25 06:08:11;;;;;;;13.07;4.07;;;3.30;99.90;;;1.43;100.00;99395.47;5037081;28;20440;-80
2023/02/25 06:10:39;;;;;;;16.40;7.85;;;3.20;99.90;;;1.40;100.00;99402.06;5035973;28;20045;-80
2023/02/25 06:13:07;;;;;;;23.50;13.32;;;3.20;99.90;;;1.29;100.00;99405.22;5052251;28;20388;-81
2023/02/25 06:15:35;;;;;;;6.63;3.50;;;3.20;99.90;;;1.17;100.00;99428.19;5058487;28;20122;-82
2023/02/25 06:18:00;;;;;;;6.88;3.50;;;3.10;99.90;;;1.16;100.00;99440.81;5046546;28;20041;-81
2023/02/25 06:20:26;;;;;;;7.18;1.40;;;3.00;99.90;;;1.10;100.00;99465.75;5051217;28;20029;-79
2023/02/25 06:22:53;;;;;;;1.77;0.75;;;2.90;99.90;;;1.05;100.00;99442.09;5032530;28;20041;-83
2023/02/25 06:25:19;;;;;;;4.00;0.60;;;2.90;99.90;;;1.04;100.00;99456.56;5036500;28;20040;-80
2023/02/25 06:27:45;;;;;;;7.60;1.33;;;2.90;99.90;;;1.03;100.00;99467.47;5040221;28;20140;-77
2023/02/25 06:30:12;;;;;;;2.65;0.65;;;2.90;99.90;;;1.03;100.00;99476.38;5039095;28;20053;-78
2023/02/25 06:32:38;;;;;;;2.15;0.70;;;2.90;99.90;;;1.01;100.00;99483.78;5034323;28;20153;-77
2023/02/25 06:35:07;;;;;;;2.42;0.70;;;2.80;99.90;;;1.01;100.00;99483.78;5041932;28;20044;-79
2023/02/25 06:37:33;;;;;;;4.15;0.88;;;2.80;99.90;;;0.94;100.00;99480.16;5056636;28;20045;-77
2023/02/25 06:39:59;;;;;;;4.18;1.25;;;2.80;99.90;;;0.97;100.00;99482.47;5033646;28;20040;-79
2023/02/25 06:42:24;;;;;;;17.80;7.80;;;2.80;99.90;;;0.97;100.00;99483.31;5045961;28;20568;-80
2023/02/25 06:44:50;;;;;;;6.82;1.52;;;2.80;99.90;;;0.95;100.00;99481.84;5042328;28;20076;-78
2023/02/25 06:47:16;;;;;;;5.82;0.88;;;2.80;99.90;;;0.91;100.00;99488.56;5054163;28;20051;-78
2023/02/25 06:49:42;;;;;;;4.72;1.60;;;2.80;99.90;;;0.93;100.00;99499.97;5059303;28;20040;-78
2023/02/25 06:52:07;;;;;;;7.03;2.03;;;2.70;99.90;;;0.96;100.00;99497.75;5032382;28;20037;-78
2023/02/25 06:54:33;;;;;;;7.22;1.90;;;2.80;99.90;;;0.95;100.00;99503.31;5055538;28;20412;-80
2023/02/25 06:56:59;;;;;;;14.88;6.80;;;2.80;99.90;;;1.00;100.00;99511.66;5047627;28;20041;-81
2023/02/25 06:59:25;;;;;;;12.07;4.75;;;2.80;99.90;;;1.00;100.00;99509.78;5036147;28;20141;-79
2023/02/25 07:01:51;;;;;;;13.13;5.03;;;2.80;99.90;;;1.04;100.00;99504.91;5037275;28;20039;-79
2023/02/25 07:04:18;;;;;;;23.35;8.80;;;2.90;99.90;;;1.06;100.00;99518.13;5042941;28;20389;-81
2023/02/25 07:06:44;;;;;;;13.48;5.43;;;2.90;99.90;;;1.07;100.00;99514.47;5045242;28;20493;-78
2023/02/25 07:09:10;;;;;;;16.58;3.00;;;2.90;99.90;;;1.06;100.00;99524.34;5046483;28;20144;-79
2023/02/25 07:11:36;;;;;;;15.95;6.28;;;2.90;99.90;;;1.06;100.00;99528.88;5039274;28;20033;-81
2023/02/25 07:14:04;;;;;;;6.68;1.50;;;2.90;99.90;;;1.05;100.00;99528.06;5038910;28;20095;-80
2023/02/25 07:16:33;;;;;;;36.83;11.25;;;2.90;99.90;;;1.07;100.00;99542.16;5039085;28;20041;-79
2023/02/25 07:19:02;;;;;;;8.40;2.53;;;2.90;99.90;;;1.00;100.00;99531.28;5056296;28;20043;-78
2023/02/25 07:21:29;;;;;;;5.18;0.88;;;2.80;99.90;;;0.97;100.00;99528.97;5041629;28;20033;-80
2023/02/25 07:23:57;;;;;;;4.95;0.68;;;2.80;99.90;;;0.95;100.00;99524.81;5046364;28;20521;-79
2023/02/25 07:26:27;;;;;;;4.63;1.52;;;2.70;99.90;;;0.84;100.00;99534.13;5046900;28;20052;-78
2023/02/25 07:28:57;;;;;;;9.02;3.50;;;2.70;99.90;;;0.89;100.00;99539.78;5031750;28;20057;-77
2023/02/25 07:31:24;;;;;;;2.88;1.17;;;2.70;99.90;;;0.82;100.00;99533.47;5035832;28;20044;-78
2023/02/25 07:33:51;;;;;;;2.00;0.43;;;2.70;99.90;;;0.83;100.00;99548.56;5043396;28;20522;-78
2023/02/25 07:36:17;;;;;;;3.25;0.50;;;2.60;99.90;;;0.80;100.00;99552.44;5028314;28;20096;-79
2023/02/25 07:38:45;;;;;;;6.15;1.15;;;2.60;99.90;;;0.90;100.00;99552.19;5046601;28;20068;-78
2023/02/25 07:41:16;;;;;;;2.88;1.20;;;2.70;99.90;;;0.89;100.00;99550.53;5034829;28;20087;-79
2023/02/25 07:43:43;;;;;;;9.35;3.45;;;2.70;99.90;;;0.96;100.00;99562.22;5042733;28;20056;-79
2023/02/25 07:46:11;;;;;;;28.50;12.65;;;2.80;99.90;;;1.05;100.00;99567.50;5051641;28;20064;-78
2023/02/25 07:48:38;;;;;;;25.80;10.23;;;2.90;99.90;;;1.06;100.00;99561.13;5041415;28;20061;-77
2023/02/25 07:51:17;;;;;;;6.70;1.33;;;2.90;99.90;;;1.02;100.00;99557.97;5042218;28;20045;-78
2023/02/25 07:53:45;;;;;;;2.67;0.90;;;2.90;99.90;;;0.98;100.00;99586.22;5046809;28;20057;-79
2023/02/25 07:56:11;;;;;;;39.08;17.20;;;2.80;99.90;;;1.04;100.00;99573.91;5050811;28;20041;-77
2023/02/25 07:58:38;;;;;;;5.30;2.40;;;2.80;99.90;;;1.06;100.00;99580.78;5039336;28;20747;-78
2023/02/25 08:01:09;;;;;;;6.45;1.70;;;2.90;99.90;;;1.06;100.00;99583.47;5039379;28;20041;-78
2023/02/25 08:03:35;;;;;;;14.98;6.15;;;2.90;99.90;;;1.12;100.00;99576.53;5043723;28;20448;-78
2023/02/25 08:06:06;;;;;;;5.28;1.42;;;2.90;99.90;;;1.12;100.00;99577.34;5050371;28;20084;-77
2023/02/25 08:08:32;;;;;;;7.20;1.95;;;2.90;99.90;;;1.13;100.00;99573.66;5039682;28;20033;-77
2023/02/25 08:10:58;;;;;;;1.90;0.30;;;3.00;99.90;;;1.15;100.00;99579.69;5047600;28;20044;-78
2023/02/25 08:13:23;;;;;;;4.32;0.80;;;3.00;99.90;;;1.14;100.00;99574.50;5039136;28;20029;-78
2023/02/25 08:15:49;;;;;;;4.28;1.33;;;3.00;99.90;;;1.21;100.00;99574.63;5050446;28;20402;-77
2023/02/25 08:18:15;;;;;;;1.17;0.50;;;3.00;99.90;;;1.22;100.00;99555.59;5050229;28;20025;-78
2023/02/25 08:20:46;;;;;;;2.45;1.20;;;3.10;99.90;;;1.27;100.00;99574.69;5050858;28;20091;-78
2023/02/25 08:23:12;;;;;;;3.13;1.08;;;3.20;99.90;;;1.31;100.00;99569.81;5060379;28;20053;-77
2023/02/25 08:25:38;;;;;;;1.80;0.50;;;3.20;99.90;;;1.23;100.00;99562.66;5044108;28;20037;-77
2023/02/25 08:28:04;;;;;;;3.28;1.00;;;3.10;99.90;;;1.36;100.00;99566.59;5035560;28;20038;-78
2023/02/25 08:30:30;;;;;;;5.68;0.75;;;3.20;99.90;;;1.43;100.00;99581.78;5033299;28;20037;-77
2023/02/25 08:32:56;;;;;;;6.45;0.93;;;3.20;99.90;;;1.61;100.00;99583.28;5055166;28;20053;-78
2023/02/25 08:35:24;;;;;;;1.70;0.40;;;3.40;99.90;;;1.66;99.79;99578.19;5039451;28;20485;-80
2023/02/25 08:37:54;;;;;;;0.32;0.20;;;3.50;99.90;;;1.70;93.90;99584.84;5052207;28;20080;-78
2023/02/25 08:40:20;;;;;;;3.83;0.50;;;3.50;99.90;;;1.72;95.06;99590.06;5060466;28;20087;-77
2023/02/25 08:42:49;;;;;;;1.55;0.40;;;3.50;99.90;;;1.60;95.96;99578.09;5039324;28;20611;-77
2023/02/25 08:45:18;;;;;;;2.15;0.47;;;3.50;99.90;;;1.63;97.54;99599.25;5038877;28;20037;-77
2023/02/25 08:47:43;;;;;;;2.35;0.60;;;3.50;99.90;;;1.74;95.68;99600.66;5047296;28;20029;-76
2023/02/25 08:50:12;;;;;;;3.83;0.55;;;3.50;99.90;;;1.66;93.49;99593.50;5035904;28;20025;-77
2023/02/25 08:52:38;;;;;;;2.33;0.75;;;3.50;99.90;;;1.70;92.58;99606.38;5032406;28;20132;-77
2023/02/25 08:55:04;;;;;;;1.20;0.40;;;3.50;99.90;;;1.70;93.08;99597.47;5030796;28;20168;-77
2023/02/25 08:57:30;;;;;;;2.20;0.70;;;3.50;99.90;;;1.84;93.78;99602.00;5039146;28;20512;-77
2023/02/25 08:59:56;;;;;;;2.08;0.57;;;3.70;99.90;;;1.98;92.14;99612.97;5045630;28;20033;-76
2023/02/25 09:02:27;;;;;;;7.32;1.00;;;3.80;99.90;;;1.87;90.84;99600.81;5064352;28;20044;-77
2023/02/25 09:04:53;;;;;;;4.53;0.80;;;3.70;99.90;;;1.89;91.70;99614.91;5033286;28;20037;-78
2023/02/25 09:07:19;;;;;;;4.88;0.73;;;3.70;99.90;;;1.85;92.89;99616.31;5042254;28;20037;-78
2023/02/25 09:09:45;;;;;;;1.70;0.30;;;3.70;99.90;;;1.86;91.42;99616.16;5058378;28;20037;-78
2023/02/25 09:12:10;;;;;;;2.60;0.80;;;3.70;99.90;;;1.82;91.87;99620.19;5041645;28;20045;-78
2023/02/25 09:14:36;;;;;;;1.92;0.60;;;3.60;99.90;;;1.77;93.27;99622.59;5040720;28;20044;-77
2023/02/25 09:17:05;;;;;;;1.25;0.50;;;3.60;99.90;;;1.86;93.65;99628.75;5054880;28;20028;-79
2023/02/25 09:19:32;;;;;;;1.95;0.60;;;3.70;99.90;;;1.83;95.17;99635.31;5059182;28;20386;-78
2023/02/25 09:21:58;;;;;;;3.70;0.85;;;3.70;99.90;;;1.83;95.86;99637.19;5041303;28;20043;-78
2023/02/25 09:24:25;;;;;;;2.90;1.02;;;3.70;99.90;;;1.58;93.97;99649.00;5041488;28;20112;-78
2023/02/25 09:26:53;;;;;;;0.60;0.45;;;3.40;99.90;;;1.56;93.66;99634.09;5044316;28;20074;-78
2023/02/25 09:29:19;;;;;;;;;;;3.40;99.90;;;1.57;94.54;99646.50;5045773;28;20033;-79
2023/02/25 09:31:44;;;;;;;1.73;0.90;;;3.40;99.90;;;1.55;94.04;99657.44;5044817;28;19917;-79
2023/02/25 09:34:14;;;;;;;2.95;0.32;;;3.40;99.90;;;1.49;93.68;99654.66;5045028;28;20045;-80
2023/02/25 09:36:40;;;;;;;1.90;0.77;;;3.40;99.90;;;1.48;95.52;99667.25;5048721;28;20052;-80
2023/02/25 09:39:08;;;;;;;2.92;1.05;;;3.30;99.90;;;1.44;96.59;99674.84;5045857;28;20047;-78
2023/02/25 09:42:08;;;;;;;4.97;0.93;;;3.30;99.90;;;1.38;100.00;99699.75;5040738;28;20044;-77
2023/02/25 09:44:42;;;;;;;6.70;1.25;;;3.30;99.90;;;1.41;100.00;99694.00;5042767;28;20037;-79
2023/02/25 09:47:20;;;;;;;2.28;0.57;;;3.30;99.90;;;1.09;100.00;99724.66;5040416;28;20033;-79
2023/02/25 09:50:06;;;;;;;4.05;1.20;;;3.00;99.90;;;1.06;100.00;99711.56;5038510;28;20053;-78
2023/02/25 09:52:47;;;;;;;1.20;0.43;;;2.90;99.90;;;1.21;100.00;99707.09;5041149;28;20477;-78
2023/02/25 09:55:32;;;;;;;1.58;0.70;;;3.10;99.90;;;1.29;100.00;99716.97;5058772;28;20501;-79
2023/02/25 09:58:10;;;;;;;1.83;0.80;;;3.20;99.90;;;1.56;100.00;99715.56;5048207;28;20041;-78
2023/02/25 10:00:46;;;;;;;1.55;0.70;;;3.40;99.90;;;1.70;100.00;99715.81;5056255;28;20073;-78
2023/02/25 10:03:24;;;;;;;3.63;1.00;;;3.60;99.90;;;1.76;100.00;99723.13;5044279;28;20033;-77
2023/02/25 10:06:08;;;;;;;3.58;0.90;;;3.60;99.90;;;1.87;100.00;99727.25;5047984;28;20093;-78
2023/02/25 10:08:50;;;;;;;7.38;1.10;;;3.80;99.90;;;1.93;100.00;99729.19;5041802;28;20054;-78
2023/02/25 10:11:32;;;;;;;1.80;0.50;;;3.90;99.90;;;1.75;100.00;99742.16;5040848;28;20047;-79
2023/02/25 10:14:45;;;;;;;2.72;0.90;;;3.70;99.90;;;1.68;100.00;99728.59;5044470;28;20041;-80
2023/02/25 10:17:30;;;;;;;4.07;0.90;;;3.70;99.90;;;1.52;100.00;99732.25;5049295;28;20037;-82
2023/02/25 10:20:17;;;;;;;2.42;1.08;;;3.50;99.90;;;1.83;100.00;99753.66;5048427;28;20049;-80
2023/02/25 10:23:07;;;;;;;1.60;0.70;;;3.60;99.90;;;2.14;100.00;99744.66;5052309;28;20147;-78
2023/02/25 10:25:44;;;;;;;0.95;0.55;;;4.00;99.90;;;2.05;100.00;99744.91;5038553;28;20102;-81
2023/02/25 10:28:16;;;;;;;1.63;0.80;;;4.10;99.90;;;2.26;100.00;99754.97;5039055;28;20504;-84
2023/02/25 10:30:52;;;;;;;3.28;0.88;;;4.20;99.90;;;2.22;100.00;99759.88;5043730;28;20097;-86
2023/02/25 10:33:25;;;;;;;2.80;0.93;;;4.20;99.90;;;2.15;100.00;99765.16;5050726;28;20175;-82
2023/02/25 10:36:14;;;;;;;1.02;0.50;;;4.10;99.90;;;2.03;100.00;99769.31;5049651;28;20997;-80
2023/02/25 10:38:51;;;;;;;;;;;4.00;99.90;;;2.12;100.00;99773.63;5048126;28;20041;-82